sensor_id;sensor_type;location;lat;lon;timestamp;P1;durP1;ratioP1;P2;durP2;ratioP2
75698;SDS011;64313;51.018;13.742;2024-03-17T00:00:44;5.15;;;1.27;;
75698;SDS011;64313;51.018;13.742;2024-03-17T00:03:09;4.28;;;1.23;;
75698;SDS011;64313;51.018;13.742;2024-03-17T00:05:37;5.78;;;1.45;;
75698;SDS011;64313;51.018;13.742;2024-03-17T00:08:03;5.45;;;1.40;;
75698;SDS011;64313;51.018;13.742;2024-03-17T00:10:33;4.68;;;1.30;;
75698;SDS011;64313;51.018;13.742;2024-03-17T00:12:59;5.35;;;1.50;;
75698;SDS011;64313;51.018;13.742;2024-03-17T00:15:25;3.95;;;1.45;;
75698;SDS011;64313;51.018;13.742;2024-03-17T00:17:51;5.35;;;1.30;;
75698;SDS011;64313;51.018;13.742;2024-03-17T00:20:16;5.38;;;1.45;;
75698;SDS011;64313;51.018;13.742;2024-03-17T00:22:47;5.28;;;1.55;;
75698;SDS011;64313;51.018;13.742;2024-03-17T00:25:13;3.80;;;1.17;;
75698;SDS011;64313;51.018;13.742;2024-03-17T00:27:39;4.35;;;1.35;;
75698;SDS011;64313;51.018;13.742;2024-03-17T00:30:07;5.15;;;1.80;;
75698;SDS011;64313;51.018;13.742;2024-03-17T00:32:37;5.82;;;1.63;;
75698;SDS011;64313;51.018;13.742;2024-03-17T00:35:03;4.20;;;1.40;;
75698;SDS011;64313;51.018;13.742;2024-03-17T00:37:29;5.00;;;1.55;;
75698;SDS011;64313;51.018;13.742;2024-03-17T00:39:54;4.63;;;1.52;;
75698;SDS011;64313;51.018;13.742;2024-03-17T00:42:21;11.40;;;1.58;;
75698;SDS011;64313;51.018;13.742;2024-03-17T00:44:46;7.35;;;1.60;;
75698;SDS011;64313;51.018;13.742;2024-03-17T00:47:11;4.10;;;1.50;;
75698;SDS011;64313;51.018;13.742;2024-03-17T00:49:37;4.55;;;1.60;;
75698;SDS011;64313;51.018;13.742;2024-03-17T00:52:02;4.32;;;1.67;;
75698;SDS011;64313;51.018;13.742;2024-03-17T00:54:28;6.07;;;1.55;;
75698;SDS011;64313;51.018;13.742;2024-03-17T00:59:18;5.80;;;1.33;;
75698;SDS011;64313;51.018;13.742;2024-03-17T01:04:09;4.70;;;1.77;;
75698;SDS011;64313;51.018;13.742;2024-03-17T01:06:34;5.55;;;1.52;;
75698;SDS011;64313;51.018;13.742;2024-03-17T01:09:00;4.82;;;1.50;;
75698;SDS011;64313;51.018;13.742;2024-03-17T01:11:25;5.22;;;1.63;;
75698;SDS011;64313;51.018;13.742;2024-03-17T01:13:50;5.35;;;1.30;;
75698;SDS011;64313;51.018;13.742;2024-03-17T01:16:16;5.47;;;1.33;;
75698;SDS011;64313;51.018;13.742;2024-03-17T01:18:41;5.35;;;1.52;;
75698;SDS011;64313;51.018;13.742;2024-03-17T01:21:08;6.32;;;1.58;;
75698;SDS011;64313;51.018;13.742;2024-03-17T01:23:33;8.23;;;1.73;;
75698;SDS011;64313;51.018;13.742;2024-03-17T01:25:59;5.25;;;1.45;;
75698;SDS011;64313;51.018;13.742;2024-03-17T01:28:24;6.40;;;1.70;;
75698;SDS011;64313;51.018;13.742;2024-03-17T01:30:49;7.15;;;1.85;;
75698;SDS011;64313;51.018;13.742;2024-03-17T01:33:15;5.72;;;1.50;;
75698;SDS011;64313;51.018;13.742;2024-03-17T01:35:42;5.15;;;1.70;;
75698;SDS011;64313;51.018;13.742;2024-03-17T01:38:08;6.05;;;1.60;;
75698;SDS011;64313;51.018;13.742;2024-03-17T01:40:35;6.00;;;1.58;;
75698;SDS011;64313;51.018;13.742;2024-03-17T01:43:00;4.25;;;1.50;;
75698;SDS011;64313;51.018;13.742;2024-03-17T01:45:29;5.70;;;1.77;;
75698;SDS011;64313;51.018;13.742;2024-03-17T01:48:02;6.32;;;2.00;;
75698;SDS011;64313;51.018;13.742;2024-03-17T01:50:35;5.05;;;1.58;;
75698;SDS011;64313;51.018;13.742;2024-03-17T01:53:08;5.65;;;1.55;;
75698;SDS011;64313;51.018;13.742;2024-03-17T01:55:36;6.07;;;1.70;;
75698;SDS011;64313;51.018;13.742;2024-03-17T01:58:04;5.97;;;1.55;;
75698;SDS011;64313;51.018;13.742;2024-03-17T02:00:32;7.28;;;1.70;;
75698;SDS011;64313;51.018;13.742;2024-03-17T02:02:59;6.72;;;1.50;;
75698;SDS011;64313;51.018;13.742;2024-03-17T02:05:25;5.75;;;1.52;;
75698;SDS011;64313;51.018;13.742;2024-03-17T02:10:15;4.87;;;1.50;;
75698;SDS011;64313;51.018;13.742;2024-03-17T02:12:40;7.80;;;1.77;;
75698;SDS011;64313;51.018;13.742;2024-03-17T02:17:32;4.22;;;1.40;;
75698;SDS011;64313;51.018;13.742;2024-03-17T02:19:58;6.60;;;1.58;;
75698;SDS011;64313;51.018;13.742;2024-03-17T02:22:24;6.85;;;1.90;;
75698;SDS011;64313;51.018;13.742;2024-03-17T02:24:49;7.20;;;1.70;;
75698;SDS011;64313;51.018;13.742;2024-03-17T02:29:40;4.75;;;1.50;;
75698;SDS011;64313;51.018;13.742;2024-03-17T02:34:33;4.30;;;1.35;;
75698;SDS011;64313;51.018;13.742;2024-03-17T02:37:01;5.65;;;1.80;;
75698;SDS011;64313;51.018;13.742;2024-03-17T02:39:28;7.40;;;1.77;;
75698;SDS011;64313;51.018;13.742;2024-03-17T02:41:59;5.43;;;1.92;;
75698;SDS011;64313;51.018;13.742;2024-03-17T02:46:57;9.05;;;1.80;;
75698;SDS011;64313;51.018;13.742;2024-03-17T02:49:23;5.97;;;1.80;;
75698;SDS011;64313;51.018;13.742;2024-03-17T02:51:49;5.43;;;1.80;;
75698;SDS011;64313;51.018;13.742;2024-03-17T02:54:14;5.65;;;1.75;;
75698;SDS011;64313;51.018;13.742;2024-03-17T02:59:05;6.50;;;1.75;;
75698;SDS011;64313;51.018;13.742;2024-03-17T03:01:31;7.30;;;1.70;;
75698;SDS011;64313;51.018;13.742;2024-03-17T03:03:57;4.75;;;1.70;;
75698;SDS011;64313;51.018;13.742;2024-03-17T03:08:47;4.75;;;1.42;;
75698;SDS011;64313;51.018;13.742;2024-03-17T03:11:16;5.65;;;1.85;;
75698;SDS011;64313;51.018;13.742;2024-03-17T03:13:42;7.32;;;1.65;;
75698;SDS011;64313;51.018;13.742;2024-03-17T03:16:12;5.35;;;1.88;;
75698;SDS011;64313;51.018;13.742;2024-03-17T03:18:41;5.25;;;1.70;;
75698;SDS011;64313;51.018;13.742;2024-03-17T03:21:09;7.03;;;1.90;;
75698;SDS011;64313;51.018;13.742;2024-03-17T03:23:35;5.25;;;1.52;;
75698;SDS011;64313;51.018;13.742;2024-03-17T03:26:02;5.75;;;1.95;;
75698;SDS011;64313;51.018;13.742;2024-03-17T03:28:29;5.38;;;1.60;;
75698;SDS011;64313;51.018;13.742;2024-03-17T03:30:58;7.72;;;1.90;;
75698;SDS011;64313;51.018;13.742;2024-03-17T03:35:49;5.30;;;1.70;;
75698;SDS011;64313;51.018;13.742;2024-03-17T03:38:15;6.47;;;2.00;;
75698;SDS011;64313;51.018;13.742;2024-03-17T03:40:42;5.55;;;1.70;;
75698;SDS011;64313;51.018;13.742;2024-03-17T03:45:33;6.13;;;1.88;;
75698;SDS011;64313;51.018;13.742;2024-03-17T03:48:00;7.57;;;2.00;;
75698;SDS011;64313;51.018;13.742;2024-03-17T03:50:25;8.27;;;1.70;;
75698;SDS011;64313;51.018;13.742;2024-03-17T03:55:16;6.65;;;1.67;;
75698;SDS011;64313;51.018;13.742;2024-03-17T04:00:08;4.65;;;1.70;;
75698;SDS011;64313;51.018;13.742;2024-03-17T04:02:40;5.18;;;1.70;;
75698;SDS011;64313;51.018;13.742;2024-03-17T04:05:06;5.88;;;1.67;;
75698;SDS011;64313;51.018;13.742;2024-03-17T04:09:57;8.30;;;1.70;;
75698;SDS011;64313;51.018;13.742;2024-03-17T04:12:25;4.55;;;1.83;;
75698;SDS011;64313;51.018;13.742;2024-03-17T04:14:51;6.85;;;1.90;;
75698;SDS011;64313;51.018;13.742;2024-03-17T04:17:19;6.68;;;1.70;;
75698;SDS011;64313;51.018;13.742;2024-03-17T04:19:46;7.72;;;2.00;;
75698;SDS011;64313;51.018;13.742;2024-03-17T04:22:15;7.85;;;1.75;;
75698;SDS011;64313;51.018;13.742;2024-03-17T04:24:44;6.35;;;1.73;;
75698;SDS011;64313;51.018;13.742;2024-03-17T04:27:10;4.68;;;1.73;;
75698;SDS011;64313;51.018;13.742;2024-03-17T04:29:36;5.55;;;1.88;;
75698;SDS011;64313;51.018;13.742;2024-03-17T04:34:27;6.18;;;1.63;;
75698;SDS011;64313;51.018;13.742;2024-03-17T04:36:53;7.10;;;1.67;;
75698;SDS011;64313;51.018;13.742;2024-03-17T04:41:44;4.35;;;1.80;;
75698;SDS011;64313;51.018;13.742;2024-03-17T04:44:10;6.53;;;1.92;;
75698;SDS011;64313;51.018;13.742;2024-03-17T04:49:01;5.33;;;1.83;;
75698;SDS011;64313;51.018;13.742;2024-03-17T04:51:28;5.60;;;1.77;;
75698;SDS011;64313;51.018;13.742;2024-03-17T04:53:53;7.13;;;1.95;;
75698;SDS011;64313;51.018;13.742;2024-03-17T04:56:19;6.55;;;1.80;;
75698;SDS011;64313;51.018;13.742;2024-03-17T04:58:44;4.18;;;1.70;;
75698;SDS011;64313;51.018;13.742;2024-03-17T05:01:09;6.53;;;1.70;;
75698;SDS011;64313;51.018;13.742;2024-03-17T05:03:35;6.57;;;1.75;;
75698;SDS011;64313;51.018;13.742;2024-03-17T05:06:02;5.13;;;1.90;;
75698;SDS011;64313;51.018;13.742;2024-03-17T05:08:29;5.22;;;1.70;;
75698;SDS011;64313;51.018;13.742;2024-03-17T05:10:59;7.93;;;2.10;;
75698;SDS011;64313;51.018;13.742;2024-03-17T05:13:25;8.27;;;2.00;;
75698;SDS011;64313;51.018;13.742;2024-03-17T05:15:52;6.32;;;2.00;;
75698;SDS011;64313;51.018;13.742;2024-03-17T05:20:42;8.17;;;2.17;;
75698;SDS011;64313;51.018;13.742;2024-03-17T05:23:08;5.28;;;1.73;;
75698;SDS011;64313;51.018;13.742;2024-03-17T05:28:01;5.05;;;1.85;;
75698;SDS011;64313;51.018;13.742;2024-03-17T05:32:52;6.47;;;1.77;;
75698;SDS011;64313;51.018;13.742;2024-03-17T05:35:19;8.52;;;2.38;;
75698;SDS011;64313;51.018;13.742;2024-03-17T05:40:10;6.27;;;2.00;;
75698;SDS011;64313;51.018;13.742;2024-03-17T05:42:37;7.10;;;1.63;;
75698;SDS011;64313;51.018;13.742;2024-03-17T05:45:03;5.45;;;1.67;;
75698;SDS011;64313;51.018;13.742;2024-03-17T05:47:28;9.07;;;2.17;;
75698;SDS011;64313;51.018;13.742;2024-03-17T05:49:54;6.97;;;1.75;;
75698;SDS011;64313;51.018;13.742;2024-03-17T05:52:21;5.68;;;1.70;;
75698;SDS011;64313;51.018;13.742;2024-03-17T05:57:12;7.23;;;1.90;;
75698;SDS011;64313;51.018;13.742;2024-03-17T05:59:39;5.63;;;1.88;;
75698;SDS011;64313;51.018;13.742;2024-03-17T06:04:29;6.10;;;1.73;;
75698;SDS011;64313;51.018;13.742;2024-03-17T06:06:55;4.90;;;1.92;;
75698;SDS011;64313;51.018;13.742;2024-03-17T06:09:20;5.68;;;1.95;;
75698;SDS011;64313;51.018;13.742;2024-03-17T06:14:11;5.35;;;1.73;;
75698;SDS011;64313;51.018;13.742;2024-03-17T06:16:38;6.55;;;2.03;;
75698;SDS011;64313;51.018;13.742;2024-03-17T06:21:29;5.88;;;2.03;;
75698;SDS011;64313;51.018;13.742;2024-03-17T06:26:19;9.23;;;2.37;;
75698;SDS011;64313;51.018;13.742;2024-03-17T06:28:45;5.07;;;1.98;;
75698;SDS011;64313;51.018;13.742;2024-03-17T06:33:36;4.83;;;1.87;;
75698;SDS011;64313;51.018;13.742;2024-03-17T06:36:02;4.97;;;1.98;;
75698;SDS011;64313;51.018;13.742;2024-03-17T06:38:32;7.35;;;2.13;;
75698;SDS011;64313;51.018;13.742;2024-03-17T06:40:57;8.52;;;2.15;;
75698;SDS011;64313;51.018;13.742;2024-03-17T06:45:57;8.77;;;2.23;;
75698;SDS011;64313;51.018;13.742;2024-03-17T06:48:24;6.28;;;1.77;;
75698;SDS011;64313;51.018;13.742;2024-03-17T06:50:50;7.57;;;2.88;;
75698;SDS011;64313;51.018;13.742;2024-03-17T06:53:22;7.78;;;2.40;;
75698;SDS011;64313;51.018;13.742;2024-03-17T06:55:57;5.57;;;1.80;;
75698;SDS011;64313;51.018;13.742;2024-03-17T06:58:24;9.55;;;2.10;;
75698;SDS011;64313;51.018;13.742;2024-03-17T07:00:55;5.63;;;1.90;;
75698;SDS011;64313;51.018;13.742;2024-03-17T07:03:22;6.50;;;2.30;;
75698;SDS011;64313;51.018;13.742;2024-03-17T07:05:52;8.55;;;2.20;;
75698;SDS011;64313;51.018;13.742;2024-03-17T07:08:18;7.82;;;1.80;;
75698;SDS011;64313;51.018;13.742;2024-03-17T07:10:54;6.40;;;1.88;;
75698;SDS011;64313;51.018;13.742;2024-03-17T07:13:23;9.48;;;1.85;;
75698;SDS011;64313;51.018;13.742;2024-03-17T07:18:14;6.00;;;1.92;;
75698;SDS011;64313;51.018;13.742;2024-03-17T07:23:06;7.45;;;1.58;;
75698;SDS011;64313;51.018;13.742;2024-03-17T07:27:57;5.63;;;1.73;;
75698;SDS011;64313;51.018;13.742;2024-03-17T07:30:22;7.78;;;2.20;;
75698;SDS011;64313;51.018;13.742;2024-03-17T07:35:13;9.23;;;2.13;;
75698;SDS011;64313;51.018;13.742;2024-03-17T07:37:39;10.20;;;2.13;;
75698;SDS011;64313;51.018;13.742;2024-03-17T07:42:31;6.03;;;1.90;;
75698;SDS011;64313;51.018;13.742;2024-03-17T07:47:22;6.50;;;1.73;;
75698;SDS011;64313;51.018;13.742;2024-03-17T07:49:47;7.82;;;1.67;;
75698;SDS011;64313;51.018;13.742;2024-03-17T07:52:13;7.43;;;1.35;;
75698;SDS011;64313;51.018;13.742;2024-03-17T07:57:03;9.40;;;2.23;;
75698;SDS011;64313;51.018;13.742;2024-03-17T07:59:29;8.05;;;1.70;;
75698;SDS011;64313;51.018;13.742;2024-03-17T08:04:21;8.80;;;1.60;;
75698;SDS011;64313;51.018;13.742;2024-03-17T08:06:46;11.63;;;2.25;;
75698;SDS011;64313;51.018;13.742;2024-03-17T08:11:37;4.90;;;1.60;;
75698;SDS011;64313;51.018;13.742;2024-03-17T08:14:03;10.30;;;1.80;;
75698;SDS011;64313;51.018;13.742;2024-03-17T08:16:29;8.73;;;1.90;;
75698;SDS011;64313;51.018;13.742;2024-03-17T08:21:20;5.88;;;1.70;;
75698;SDS011;64313;51.018;13.742;2024-03-17T08:23:45;7.45;;;1.65;;
75698;SDS011;64313;51.018;13.742;2024-03-17T08:26:12;8.25;;;1.70;;
75698;SDS011;64313;51.018;13.742;2024-03-17T08:28:38;7.68;;;1.83;;
75698;SDS011;64313;51.018;13.742;2024-03-17T08:31:03;6.40;;;1.48;;
75698;SDS011;64313;51.018;13.742;2024-03-17T08:33:29;9.35;;;2.00;;
75698;SDS011;64313;51.018;13.742;2024-03-17T08:35:59;9.40;;;1.80;;
75698;SDS011;64313;51.018;13.742;2024-03-17T08:38:27;7.18;;;1.52;;
75698;SDS011;64313;51.018;13.742;2024-03-17T08:40:54;8.73;;;1.60;;
75698;SDS011;64313;51.018;13.742;2024-03-17T08:43:20;10.88;;;2.00;;
75698;SDS011;64313;51.018;13.742;2024-03-17T08:45:58;9.43;;;1.65;;
75698;SDS011;64313;51.018;13.742;2024-03-17T08:48:27;8.50;;;1.70;;
75698;SDS011;64313;51.018;13.742;2024-03-17T08:50:54;8.88;;;1.60;;
75698;SDS011;64313;51.018;13.742;2024-03-17T08:53:20;9.02;;;1.73;;
75698;SDS011;64313;51.018;13.742;2024-03-17T08:55:46;5.55;;;1.30;;
75698;SDS011;64313;51.018;13.742;2024-03-17T08:58:11;8.13;;;1.60;;
75698;SDS011;64313;51.018;13.742;2024-03-17T09:03:05;8.43;;;1.60;;
75698;SDS011;64313;51.018;13.742;2024-03-17T09:05:33;6.68;;;1.30;;
75698;SDS011;64313;51.018;13.742;2024-03-17T09:07:58;8.10;;;1.52;;
75698;SDS011;64313;51.018;13.742;2024-03-17T09:10:23;5.45;;;1.25;;
75698;SDS011;64313;51.018;13.742;2024-03-17T09:12:49;13.43;;;1.98;;
75698;SDS011;64313;51.018;13.742;2024-03-17T09:15:14;6.72;;;1.33;;
75698;SDS011;64313;51.018;13.742;2024-03-17T09:20:10;6.22;;;1.50;;
75698;SDS011;64313;51.018;13.742;2024-03-17T09:22:37;5.20;;;1.40;;
75698;SDS011;64313;51.018;13.742;2024-03-17T09:25:05;7.65;;;1.42;;
75698;SDS011;64313;51.018;13.742;2024-03-17T09:27:32;7.00;;;1.60;;
75698;SDS011;64313;51.018;13.742;2024-03-17T09:29:58;7.25;;;1.70;;
75698;SDS011;64313;51.018;13.742;2024-03-17T09:32:24;7.70;;;1.30;;
75698;SDS011;64313;51.018;13.742;2024-03-17T09:34:50;10.50;;;1.25;;
75698;SDS011;64313;51.018;13.742;2024-03-17T09:37:15;6.15;;;1.50;;
75698;SDS011;64313;51.018;13.742;2024-03-17T09:39:46;9.10;;;1.50;;
75698;SDS011;64313;51.018;13.742;2024-03-17T09:42:16;5.90;;;1.48;;
75698;SDS011;64313;51.018;13.742;2024-03-17T09:44:45;6.22;;;1.23;;
75698;SDS011;64313;51.018;13.742;2024-03-17T09:47:12;5.78;;;1.35;;
75698;SDS011;64313;51.018;13.742;2024-03-17T09:52:09;6.70;;;1.20;;
75698;SDS011;64313;51.018;13.742;2024-03-17T09:54:58;3.90;;;0.98;;
75698;SDS011;64313;51.018;13.742;2024-03-17T09:57:26;7.88;;;1.35;;
75698;SDS011;64313;51.018;13.742;2024-03-17T09:59:54;6.15;;;1.25;;
75698;SDS011;64313;51.018;13.742;2024-03-17T10:02:20;6.18;;;1.65;;
75698;SDS011;64313;51.018;13.742;2024-03-17T10:04:46;8.57;;;1.33;;
75698;SDS011;64313;51.018;13.742;2024-03-17T10:07:12;4.38;;;1.10;;
75698;SDS011;64313;51.018;13.742;2024-03-17T10:09:37;5.35;;;1.30;;
75698;SDS011;64313;51.018;13.742;2024-03-17T10:12:04;3.97;;;1.10;;
75698;SDS011;64313;51.018;13.742;2024-03-17T10:14:30;4.07;;;1.00;;
75698;SDS011;64313;51.018;13.742;2024-03-17T10:16:56;7.15;;;1.38;;
75698;SDS011;64313;51.018;13.742;2024-03-17T10:19:22;6.70;;;1.10;;
75698;SDS011;64313;51.018;13.742;2024-03-17T10:21:49;6.65;;;1.40;;
75698;SDS011;64313;51.018;13.742;2024-03-17T10:24:25;4.95;;;1.17;;
75698;SDS011;64313;51.018;13.742;2024-03-17T10:26:54;6.55;;;1.30;;
75698;SDS011;64313;51.018;13.742;2024-03-17T10:29:25;6.07;;;1.10;;
75698;SDS011;64313;51.018;13.742;2024-03-17T10:31:52;7.30;;;1.17;;
75698;SDS011;64313;51.018;13.742;2024-03-17T10:34:19;7.95;;;1.58;;
75698;SDS011;64313;51.018;13.742;2024-03-17T10:36:48;5.32;;;1.15;;
75698;SDS011;64313;51.018;13.742;2024-03-17T10:39:23;5.72;;;1.20;;
75698;SDS011;64313;51.018;13.742;2024-03-17T10:41:58;4.75;;;1.10;;
75698;SDS011;64313;51.018;13.742;2024-03-17T10:44:28;6.95;;;1.20;;
75698;SDS011;64313;51.018;13.742;2024-03-17T10:46:54;6.40;;;1.38;;
75698;SDS011;64313;51.018;13.742;2024-03-17T10:49:23;6.07;;;1.50;;
75698;SDS011;64313;51.018;13.742;2024-03-17T10:51:53;6.57;;;1.27;;
75698;SDS011;64313;51.018;13.742;2024-03-17T10:54:23;3.53;;;1.00;;
75698;SDS011;64313;51.018;13.742;2024-03-17T10:56:57;6.20;;;1.20;;
75698;SDS011;64313;51.018;13.742;2024-03-17T10:59:39;5.68;;;1.13;;
75698;SDS011;64313;51.018;13.742;2024-03-17T11:02:17;6.68;;;1.55;;
75698;SDS011;64313;51.018;13.742;2024-03-17T11:04:49;7.07;;;1.50;;
75698;SDS011;64313;51.018;13.742;2024-03-17T11:07:16;6.78;;;1.65;;
75698;SDS011;64313;51.018;13.742;2024-03-17T11:09:44;7.88;;;1.90;;
75698;SDS011;64313;51.018;13.742;2024-03-17T11:17:51;7.45;;;1.80;;
75698;SDS011;64313;51.018;13.742;2024-03-17T11:20:25;8.82;;;1.40;;
75698;SDS011;64313;51.018;13.742;2024-03-17T11:22:54;7.68;;;1.60;;
75698;SDS011;64313;51.018;13.742;2024-03-17T11:27:54;4.88;;;1.40;;
75698;SDS011;64313;51.018;13.742;2024-03-17T11:49:16;7.57;;;1.85;;
75698;SDS011;64313;51.018;13.742;2024-03-17T11:52:07;5.03;;;1.42;;
75698;SDS011;64313;51.018;13.742;2024-03-17T11:54:36;9.18;;;1.52;;
75698;SDS011;64313;51.018;13.742;2024-03-17T11:57:07;7.65;;;1.60;;
75698;SDS011;64313;51.018;13.742;2024-03-17T11:59:35;9.60;;;2.30;;
75698;SDS011;64313;51.018;13.742;2024-03-17T12:02:02;7.57;;;1.55;;
75698;SDS011;64313;51.018;13.742;2024-03-17T12:04:38;4.50;;;1.30;;
75698;SDS011;64313;51.018;13.742;2024-03-17T12:07:07;4.50;;;1.77;;
75698;SDS011;64313;51.018;13.742;2024-03-17T12:09:37;7.60;;;1.80;;
75698;SDS011;64313;51.018;13.742;2024-03-17T12:12:10;6.25;;;1.60;;
75698;SDS011;64313;51.018;13.742;2024-03-17T12:14:39;5.68;;;1.65;;
75698;SDS011;64313;51.018;13.742;2024-03-17T12:17:06;8.25;;;1.58;;
75698;SDS011;64313;51.018;13.742;2024-03-17T12:19:33;7.72;;;1.50;;
75698;SDS011;64313;51.018;13.742;2024-03-17T12:21:59;7.90;;;1.85;;
75698;SDS011;64313;51.018;13.742;2024-03-17T12:24:26;5.03;;;1.40;;
75698;SDS011;64313;51.018;13.742;2024-03-17T12:26:53;6.03;;;1.40;;
75698;SDS011;64313;51.018;13.742;2024-03-17T12:29:28;5.97;;;1.60;;
75698;SDS011;64313;51.018;13.742;2024-03-17T12:32:00;5.68;;;1.45;;
75698;SDS011;64313;51.018;13.742;2024-03-17T12:34:31;4.03;;;1.33;;
75698;SDS011;64313;51.018;13.742;2024-03-17T12:36:58;5.03;;;1.40;;
75698;SDS011;64313;51.018;13.742;2024-03-17T12:39:25;6.93;;;1.27;;
75698;SDS011;64313;51.018;13.742;2024-03-17T12:42:00;6.03;;;1.52;;
75698;SDS011;64313;51.018;13.742;2024-03-17T12:44:27;6.40;;;1.42;;
75698;SDS011;64313;51.018;13.742;2024-03-17T12:46:55;7.28;;;1.30;;
75698;SDS011;64313;51.018;13.742;2024-03-17T12:49:27;6.55;;;1.63;;
75698;SDS011;64313;51.018;13.742;2024-03-17T12:51:53;6.90;;;1.58;;
75698;SDS011;64313;51.018;13.742;2024-03-17T12:54:25;4.88;;;1.52;;
75698;SDS011;64313;51.018;13.742;2024-03-17T12:57:05;6.90;;;1.38;;
75698;SDS011;64313;51.018;13.742;2024-03-17T12:59:50;5.97;;;1.30;;
75698;SDS011;64313;51.018;13.742;2024-03-17T13:02:40;5.72;;;1.73;;
75698;SDS011;64313;51.018;13.742;2024-03-17T13:07:40;5.18;;;1.35;;
75698;SDS011;64313;51.018;13.742;2024-03-17T13:10:06;6.40;;;1.63;;
75698;SDS011;64313;51.018;13.742;2024-03-17T13:12:32;5.55;;;1.38;;
75698;SDS011;64313;51.018;13.742;2024-03-17T13:14:58;5.15;;;1.52;;
75698;SDS011;64313;51.018;13.742;2024-03-17T13:17:24;6.85;;;1.40;;
75698;SDS011;64313;51.018;13.742;2024-03-17T13:19:49;5.90;;;1.75;;
75698;SDS011;64313;51.018;13.742;2024-03-17T13:22:14;7.03;;;1.75;;
75698;SDS011;64313;51.018;13.742;2024-03-17T13:24:40;4.43;;;1.60;;
75698;SDS011;64313;51.018;13.742;2024-03-17T13:27:05;6.10;;;1.70;;
75698;SDS011;64313;51.018;13.742;2024-03-17T13:29:33;6.43;;;1.40;;
75698;SDS011;64313;51.018;13.742;2024-03-17T13:32:00;6.43;;;1.40;;
75698;SDS011;64313;51.018;13.742;2024-03-17T13:34:26;6.63;;;1.80;;
75698;SDS011;64313;51.018;13.742;2024-03-17T13:36:54;6.85;;;1.50;;
75698;SDS011;64313;51.018;13.742;2024-03-17T13:39:20;6.00;;;1.80;;
75698;SDS011;64313;51.018;13.742;2024-03-17T13:41:49;4.85;;;1.58;;
75698;SDS011;64313;51.018;13.742;2024-03-17T13:44:16;5.78;;;1.50;;
75698;SDS011;64313;51.018;13.742;2024-03-17T13:46:41;6.55;;;1.73;;
75698;SDS011;64313;51.018;13.742;2024-03-17T13:49:07;5.30;;;1.73;;
75698;SDS011;64313;51.018;13.742;2024-03-17T13:51:33;6.43;;;1.90;;
75698;SDS011;64313;51.018;13.742;2024-03-17T13:53:59;5.57;;;1.60;;
75698;SDS011;64313;51.018;13.742;2024-03-17T13:56:24;5.95;;;1.83;;
75698;SDS011;64313;51.018;13.742;2024-03-17T13:58:50;8.05;;;1.50;;
75698;SDS011;64313;51.018;13.742;2024-03-17T14:01:16;8.02;;;2.00;;
75698;SDS011;64313;51.018;13.742;2024-03-17T14:03:41;4.20;;;1.40;;
75698;SDS011;64313;51.018;13.742;2024-03-17T14:06:08;5.85;;;1.80;;
75698;SDS011;64313;51.018;13.742;2024-03-17T14:08:34;5.68;;;1.80;;
75698;SDS011;64313;51.018;13.742;2024-03-17T14:10:59;5.38;;;1.90;;
75698;SDS011;64313;51.018;13.742;2024-03-17T14:13:25;6.75;;;1.80;;
75698;SDS011;64313;51.018;13.742;2024-03-17T14:15:51;7.53;;;2.25;;
75698;SDS011;64313;51.018;13.742;2024-03-17T14:18:16;6.28;;;2.03;;
75698;SDS011;64313;51.018;13.742;2024-03-17T14:20:41;6.78;;;2.13;;
75698;SDS011;64313;51.018;13.742;2024-03-17T14:23:07;4.68;;;2.10;;
75698;SDS011;64313;51.018;13.742;2024-03-17T14:25:32;6.22;;;1.90;;
75698;SDS011;64313;51.018;13.742;2024-03-17T14:27:57;4.53;;;1.80;;
75698;SDS011;64313;51.018;13.742;2024-03-17T14:30:23;8.27;;;2.20;;
75698;SDS011;64313;51.018;13.742;2024-03-17T14:32:48;6.80;;;2.00;;
75698;SDS011;64313;51.018;13.742;2024-03-17T14:35:15;6.15;;;2.25;;
75698;SDS011;64313;51.018;13.742;2024-03-17T14:37:42;5.97;;;1.80;;
75698;SDS011;64313;51.018;13.742;2024-03-17T14:40:12;8.55;;;2.20;;
75698;SDS011;64313;51.018;13.742;2024-03-17T14:42:45;6.85;;;1.77;;
75698;SDS011;64313;51.018;13.742;2024-03-17T14:45:10;7.72;;;2.50;;
75698;SDS011;64313;51.018;13.742;2024-03-17T14:47:36;8.15;;;2.03;;
75698;SDS011;64313;51.018;13.742;2024-03-17T14:50:01;6.80;;;1.92;;
75698;SDS011;64313;51.018;13.742;2024-03-17T14:52:26;6.32;;;1.80;;
75698;SDS011;64313;51.018;13.742;2024-03-17T14:54:52;8.23;;;2.10;;
75698;SDS011;64313;51.018;13.742;2024-03-17T14:57:19;7.07;;;2.13;;
75698;SDS011;64313;51.018;13.742;2024-03-17T14:59:45;6.35;;;2.20;;
75698;SDS011;64313;51.018;13.742;2024-03-17T15:02:10;8.23;;;1.90;;
75698;SDS011;64313;51.018;13.742;2024-03-17T15:04:36;6.97;;;1.90;;
75698;SDS011;64313;51.018;13.742;2024-03-17T15:07:01;6.50;;;1.95;;
75698;SDS011;64313;51.018;13.742;2024-03-17T15:09:26;6.60;;;1.90;;
75698;SDS011;64313;51.018;13.742;2024-03-17T15:11:51;8.15;;;1.92;;
75698;SDS011;64313;51.018;13.742;2024-03-17T15:14:17;8.63;;;2.10;;
75698;SDS011;64313;51.018;13.742;2024-03-17T15:16:43;5.18;;;1.70;;
75698;SDS011;64313;51.018;13.742;2024-03-17T15:19:09;7.00;;;1.92;;
75698;SDS011;64313;51.018;13.742;2024-03-17T15:21:34;7.53;;;2.00;;
75698;SDS011;64313;51.018;13.742;2024-03-17T15:24:02;7.68;;;2.20;;
75698;SDS011;64313;51.018;13.742;2024-03-17T15:26:28;8.13;;;2.55;;
75698;SDS011;64313;51.018;13.742;2024-03-17T15:28:54;7.70;;;2.30;;
75698;SDS011;64313;51.018;13.742;2024-03-17T15:31:20;6.68;;;2.17;;
75698;SDS011;64313;51.018;13.742;2024-03-17T15:33:49;8.77;;;2.17;;
75698;SDS011;64313;51.018;13.742;2024-03-17T15:36:17;8.50;;;2.20;;
75698;SDS011;64313;51.018;13.742;2024-03-17T15:38:42;5.43;;;1.75;;
75698;SDS011;64313;51.018;13.742;2024-03-17T15:41:10;7.88;;;2.38;;
75698;SDS011;64313;51.018;13.742;2024-03-17T15:43:36;13.23;;;3.08;;
75698;SDS011;64313;51.018;13.742;2024-03-17T15:46:19;11.80;;;2.70;;
75698;SDS011;64313;51.018;13.742;2024-03-17T15:48:47;6.38;;;2.00;;
75698;SDS011;64313;51.018;13.742;2024-03-17T15:51:13;7.35;;;2.13;;
75698;SDS011;64313;51.018;13.742;2024-03-17T15:53:40;8.23;;;2.40;;
75698;SDS011;64313;51.018;13.742;2024-03-17T15:56:05;8.32;;;2.38;;
75698;SDS011;64313;51.018;13.742;2024-03-17T15:58:31;7.35;;;2.20;;
75698;SDS011;64313;51.018;13.742;2024-03-17T16:00:57;6.57;;;2.45;;
75698;SDS011;64313;51.018;13.742;2024-03-17T16:03:27;6.75;;;2.15;;
75698;SDS011;64313;51.018;13.742;2024-03-17T16:05:54;6.75;;;2.58;;
75698;SDS011;64313;51.018;13.742;2024-03-17T16:08:25;6.50;;;2.22;;
75698;SDS011;64313;51.018;13.742;2024-03-17T16:10:51;5.60;;;1.92;;
75698;SDS011;64313;51.018;13.742;2024-03-17T16:13:22;6.32;;;2.22;;
75698;SDS011;64313;51.018;13.742;2024-03-17T16:15:51;7.47;;;1.90;;
75698;SDS011;64313;51.018;13.742;2024-03-17T16:18:19;5.38;;;1.77;;
75698;SDS011;64313;51.018;13.742;2024-03-17T16:23:14;6.60;;;2.35;;
75698;SDS011;64313;51.018;13.742;2024-03-17T16:25:40;10.05;;;2.08;;
75698;SDS011;64313;51.018;13.742;2024-03-17T16:28:06;7.60;;;1.80;;
75698;SDS011;64313;51.018;13.742;2024-03-17T16:30:31;4.35;;;1.90;;
75698;SDS011;64313;51.018;13.742;2024-03-17T16:32:57;7.72;;;2.10;;
75698;SDS011;64313;51.018;13.742;2024-03-17T16:35:23;6.78;;;1.85;;
75698;SDS011;64313;51.018;13.742;2024-03-17T16:37:48;7.57;;;1.98;;
75698;SDS011;64313;51.018;13.742;2024-03-17T16:40:14;7.20;;;1.90;;
75698;SDS011;64313;51.018;13.742;2024-03-17T16:42:41;6.55;;;2.17;;
75698;SDS011;64313;51.018;13.742;2024-03-17T16:45:07;5.80;;;2.03;;